This is the latest recevied weather packets stored in our database for station/object IV3CGM-13. If no packets are shown the sender has not sent any weather packets the latest 10 day(s).
| Time | Temp. | Humidity | Pressure | Rain* | Wind** | Luminosity | Snow |
|---|---|---|---|---|---|---|---|
| 1777676934 | 11.67° C | 55% | 1025.8 hPa | 0 mm | - | 0 W/m² | - |
| 1777676233 | 11.67° C | 60% | 1025.8 hPa | 0 mm | - | 0 W/m² | - |
| 1777675545 | 12.78° C | 53% | 1025.8 hPa | 0 mm | - | 0 W/m² | - |
| 1777674857 | 13.89° C | 45% | 1025.7 hPa | 0 mm | - | 0 W/m² | - |
| 1777674171 | 13.33° C | 49% | 1025.7 hPa | 0 mm | - | 0 W/m² | - |
| 1777673483 | 13.89° C | 47% | 1025.7 hPa | 0 mm | - | 0 W/m² | - |
| 1777672795 | 13.89° C | 43% | 1025.6 hPa | 0 mm | - | 0 W/m² | - |
| 1777672058 | 13.89° C | 46% | 1025.5 hPa | 0 mm | - | 0 W/m² | - |
| 1777671358 | 13.89° C | 43% | 1025.6 hPa | 0 mm | - | 0 W/m² | - |
| 1777670670 | 13.89° C | 47% | 1025.5 hPa | 0 mm | - | 0 W/m² | - |
| 1777669982 | 13.89° C | 45% | 1025.4 hPa | 0 mm | - | 0 W/m² | - |
| 1777669295 | 13.89° C | 44% | 1025.4 hPa | 0 mm | - | 0 W/m² | - |
| 1777668558 | 13.89° C | 44% | 1025.2 hPa | 0 mm | - | 0 W/m² | - |
| 1777667857 | 14.44° C | 44% | 1025.2 hPa | 0 mm | - | 0 W/m² | - |
| 1777667170 | 13.89° C | 43% | 1025.1 hPa | 0 mm | - | 0 W/m² | - |
| 1777666482 | 13.89° C | 46% | 1025.1 hPa | 0 mm | - | 0 W/m² | - |
| 1777665795 | 13.89° C | 46% | 1025.1 hPa | 0 mm | - | 0 W/m² | - |
| 1777665058 | 13.89° C | 45% | 1024.9 hPa | 0 mm | - | 0 W/m² | - |
| 1777664357 | 12.78° C | 48% | 1024.8 hPa | 0 mm | - | 0 W/m² | - |
| 1777663670 | 11.67° C | 57% | 1024.7 hPa | 0 mm | - | 0 W/m² | - |
| 1777662982 | 12.22° C | 56% | 1024.7 hPa | 0 mm | - | 0 W/m² | - |
| 1777662294 | 12.22° C | 50% | 1024.5 hPa | 0 mm | - | 0 W/m² | - |
| 1777661558 | 12.22° C | 48% | 1024.4 hPa | 0 mm | - | 0 W/m² | - |
| 1777660856 | 12.22° C | 49% | 1024.3 hPa | 0 mm | - | 0 W/m² | - |
| 1777660169 | 12.78° C | 53% | 1024.2 hPa | 0 mm | - | 1 W/m² | - |
* Rain latest hour (hover to see other rain measurements)
** Current wind speed in m/s (hover to see current wind gust speed)